createdAt,value
2023-08-04T00:02:46.363Z,56.41
2023-08-04T00:07:49.235Z,58.09
2023-08-04T00:12:52.536Z,58.80
2023-08-04T00:17:55.964Z,60.57
2023-08-04T00:22:58.974Z,60.91
2023-08-04T00:28:02.090Z,61.36
2023-08-04T00:33:04.954Z,61.59
2023-08-04T00:38:07.770Z,61.75
2023-08-04T00:43:10.694Z,61.86
2023-08-04T00:48:14.309Z,61.75
2023-08-04T00:53:17.827Z,62.05
2023-08-04T00:58:20.929Z,64.61
2023-08-04T01:03:25.986Z,59.86
2023-08-04T01:08:34.300Z,54.66
2023-08-04T01:13:41.176Z,56.39
2023-08-04T01:18:44.162Z,57.95
2023-08-04T01:23:46.960Z,59.24
2023-08-04T01:28:50.440Z,60.05
2023-08-04T01:33:53.426Z,61.11
2023-08-04T01:38:57.622Z,62.21
2023-08-04T01:44:00.520Z,62.96
2023-08-04T01:49:03.389Z,56.26
2023-08-04T01:54:06.215Z,56.87
2023-08-04T01:59:08.982Z,58.60
2023-08-04T02:04:11.810Z,59.59
2023-08-04T02:09:15.099Z,60.77
2023-08-04T02:14:17.880Z,62.16
2023-08-04T02:19:22.331Z,65.29
2023-08-04T02:24:25.095Z,60.00
2023-08-04T02:29:27.921Z,56.11
2023-08-04T02:34:30.686Z,58.27
2023-08-04T02:39:35.946Z,59.86
2023-08-04T02:44:38.732Z,60.02
2023-08-04T02:49:41.653Z,60.92
2023-08-04T02:54:44.433Z,65.81
2023-08-04T02:59:47.273Z,60.74
2023-08-04T03:04:50.056Z,56.16
2023-08-04T03:09:52.833Z,57.94
2023-08-04T03:14:55.635Z,59.24
2023-08-04T03:19:58.457Z,61.40
2023-08-04T03:25:02.197Z,65.50
2023-08-04T03:30:05.307Z,59.45
2023-08-04T03:35:08.292Z,57.18
2023-08-04T03:40:11.834Z,59.78
2023-08-04T03:45:14.655Z,63.47
2023-08-04T03:50:17.439Z,59.57
2023-08-04T03:55:20.563Z,58.86
2023-08-04T04:00:23.407Z,60.24
2023-08-04T04:05:26.283Z,62.50
2023-08-04T04:10:29.165Z,64.67
2023-08-04T04:15:32.064Z,58.23
2023-08-04T04:20:34.859Z,58.43
2023-08-04T04:25:37.738Z,61.05
2023-08-04T04:30:40.504Z,64.30
2023-08-04T04:35:50.955Z,59.15
2023-08-04T04:41:01.735Z,58.94
2023-08-04T04:46:04.875Z,58.12
2023-08-04T04:51:07.711Z,48.51
2023-08-04T04:56:11.318Z,42.91
2023-08-04T05:01:14.021Z,37.37
2023-08-04T05:06:17.471Z,34.66
2023-08-04T05:11:20.280Z,36.09
2023-08-04T05:16:23.238Z,39.18
2023-08-04T05:21:26.042Z,43.56
2023-08-04T05:26:28.818Z,46.46
2023-08-04T05:31:33.077Z,48.66
2023-08-04T05:36:35.926Z,50.53
2023-08-04T05:41:38.742Z,52.26
2023-08-04T05:46:41.813Z,53.12
2023-08-04T05:51:46.525Z,53.43
2023-08-04T05:56:49.455Z,54.58
2023-08-04T06:01:55.548Z,55.06
2023-08-04T06:06:58.601Z,55.63
2023-08-04T06:12:01.426Z,55.72
2023-08-04T06:17:04.630Z,56.13
2023-08-04T06:22:09.049Z,55.98
2023-08-04T06:27:12.626Z,55.69
2023-08-04T06:32:15.633Z,55.72
2023-08-04T06:37:18.423Z,54.97
2023-08-04T06:42:21.440Z,50.13
2023-08-04T06:47:24.698Z,43.06
2023-08-04T06:52:28.429Z,38.60
2023-08-04T06:57:31.531Z,32.67
2023-08-04T07:02:35.129Z,31.59
2023-08-04T07:07:39.323Z,29.28
2023-08-04T07:12:44.911Z,26.37
2023-08-04T07:17:48.467Z,25.76
2023-08-04T07:22:51.509Z,26.35
2023-08-04T07:27:54.797Z,25.96
2023-08-04T07:32:57.736Z,26.25
2023-08-04T07:38:00.825Z,30.15
2023-08-04T07:43:03.754Z,30.51
2023-08-04T07:48:07.116Z,31.51
2023-08-04T07:53:10.110Z,31.50
2023-08-04T07:58:12.818Z,30.70
2023-08-04T08:03:15.793Z,29.78
2023-08-04T08:08:19.906Z,27.61
2023-08-04T08:13:22.947Z,28.38
2023-08-04T08:18:26.123Z,29.25
2023-08-04T08:23:29.173Z,29.55
2023-08-04T08:28:32.968Z,29.37
2023-08-04T08:33:35.841Z,29.47
2023-08-04T08:38:40.307Z,30.86
2023-08-04T08:43:45.283Z,33.33
2023-08-04T08:48:51.073Z,35.42
2023-08-04T08:53:54.514Z,37.71
2023-08-04T08:58:57.471Z,37.47
2023-08-04T09:04:01.969Z,35.46
2023-08-04T09:09:07.386Z,36.47
2023-08-04T09:14:10.349Z,37.71
2023-08-04T09:19:13.148Z,39.48
2023-08-04T09:24:17.194Z,40.27
2023-08-04T09:29:20.510Z,40.55
2023-08-04T09:34:23.431Z,40.76
2023-08-04T09:39:31.343Z,41.42
2023-08-04T09:44:56.275Z,42.80
2023-08-04T09:50:11.915Z,44.05
2023-08-04T09:55:19.482Z,43.74
2023-08-04T10:00:25.311Z,43.75
2023-08-04T10:05:31.153Z,43.79
2023-08-04T10:10:34.292Z,44.30
2023-08-04T10:15:37.606Z,44.97
2023-08-04T10:20:54.676Z,44.29
2023-08-04T10:26:04.377Z,44.27
2023-08-04T10:31:13.377Z,44.12
2023-08-04T10:36:18.636Z,44.18
2023-08-04T10:41:21.522Z,44.10
2023-08-04T10:46:26.356Z,44.51
2023-08-04T10:51:31.266Z,44.73
2023-08-04T10:56:37.462Z,45.70
2023-08-04T11:01:40.730Z,45.71
2023-08-04T11:06:45.638Z,45.97
2023-08-04T11:11:49.409Z,45.96
2023-08-04T11:16:52.968Z,46.06
2023-08-04T11:21:56.215Z,47.22
2023-08-04T11:26:59.264Z,47.21
2023-08-04T11:32:10.080Z,46.83
2023-08-04T11:37:12.949Z,46.61
2023-08-04T11:42:18.117Z,47.00
2023-08-04T11:47:21.868Z,47.25
2023-08-04T11:52:25.358Z,46.95
2023-08-04T11:57:28.282Z,47.25
2023-08-04T12:02:31.436Z,47.44
2023-08-04T12:07:38.387Z,47.84
2023-08-04T12:12:43.284Z,48.29
2023-08-04T12:17:46.852Z,47.86
2023-08-04T12:22:51.102Z,47.87
2023-08-04T12:28:00.428Z,47.59
2023-08-04T12:33:09.128Z,46.80
2023-08-04T12:38:14.063Z,46.62
2023-08-04T12:43:19.145Z,46.20
2023-08-04T12:48:22.525Z,46.52
2023-08-04T12:53:25.646Z,46.48
2023-08-04T12:58:32.362Z,45.80
2023-08-04T13:03:35.906Z,46.11
2023-08-04T13:08:38.852Z,45.53
2023-08-04T13:13:41.847Z,45.98
2023-08-04T13:18:44.809Z,45.66
2023-08-04T13:23:48.758Z,46.14
2023-08-04T13:28:52.645Z,46.21
2023-08-04T13:33:55.722Z,46.58
2023-08-04T13:38:58.600Z,46.58
2023-08-04T13:44:01.779Z,45.59
2023-08-04T13:49:05.155Z,44.88
2023-08-04T13:54:08.195Z,45.30
2023-08-04T13:59:13.523Z,45.53
2023-08-04T14:04:19.266Z,45.64
2023-08-04T14:09:22.738Z,45.06
2023-08-04T14:14:25.701Z,44.76
2023-08-04T14:19:28.675Z,45.12
2023-08-04T14:24:31.621Z,45.33
2023-08-04T14:29:34.666Z,45.08
2023-08-04T14:34:37.947Z,45.55
2023-08-04T14:39:40.824Z,45.92
2023-08-04T14:44:44.941Z,46.07
2023-08-04T14:49:47.860Z,46.45
2023-08-04T14:54:50.741Z,46.11
2023-08-04T14:59:53.721Z,45.73
2023-08-04T15:04:56.710Z,45.99
2023-08-04T15:09:59.658Z,45.93
2023-08-04T15:15:03.384Z,45.94
2023-08-04T15:20:09.276Z,45.94
2023-08-04T15:25:12.674Z,46.03
2023-08-04T15:30:15.576Z,46.13
2023-08-04T15:35:18.478Z,46.35
2023-08-04T15:40:21.713Z,46.68
2023-08-04T15:45:26.079Z,47.04
2023-08-04T15:50:29.615Z,47.18
2023-08-04T15:55:32.845Z,47.64
2023-08-04T16:00:40.154Z,47.82
2023-08-04T16:05:47.063Z,47.72
2023-08-04T16:10:57.673Z,48.03
2023-08-04T16:16:08.128Z,48.16
2023-08-04T16:21:11.359Z,48.44
2023-08-04T16:26:14.900Z,48.74
2023-08-04T16:31:18.046Z,48.89
2023-08-04T16:36:24.482Z,49.06
2023-08-04T16:41:27.331Z,49.58
2023-08-04T16:46:30.232Z,49.46
2023-08-04T16:51:33.119Z,49.75
2023-08-04T16:56:35.930Z,49.93
2023-08-04T17:01:38.877Z,50.17
2023-08-04T17:06:43.135Z,50.26
2023-08-04T17:11:47.266Z,51.28
2023-08-04T17:16:50.950Z,51.39
2023-08-04T17:21:54.574Z,51.97
2023-08-04T17:26:57.469Z,52.13
2023-08-04T17:32:00.947Z,52.23
2023-08-04T17:37:04.653Z,52.76
2023-08-04T17:42:08.724Z,54.60
2023-08-04T17:47:14.025Z,56.39
2023-08-04T17:52:18.527Z,57.01
2023-08-04T17:57:24.018Z,56.55
2023-08-04T18:02:27.936Z,56.34
2023-08-04T18:07:40.978Z,56.17
2023-08-04T18:12:51.187Z,57.98
2023-08-04T18:17:56.423Z,57.96
2023-08-04T18:23:00.796Z,58.86
2023-08-04T18:28:11.645Z,57.81
2023-08-04T18:33:16.891Z,58.09
2023-08-04T18:38:22.893Z,58.80
2023-08-04T18:43:26.632Z,58.82
2023-08-04T18:48:29.518Z,60.51
2023-08-04T18:53:32.351Z,59.70
2023-08-04T18:58:35.291Z,59.48
2023-08-04T19:03:38.229Z,60.65
2023-08-04T19:08:41.136Z,61.03
2023-08-04T19:13:43.962Z,61.74
2023-08-04T19:18:46.791Z,66.19
2023-08-04T19:23:50.586Z,63.57
2023-08-04T19:28:53.368Z,57.26
2023-08-04T19:33:56.167Z,57.44
2023-08-04T19:39:03.223Z,58.93
2023-08-04T19:44:06.363Z,59.75
2023-08-04T19:49:10.240Z,60.41
2023-08-04T19:54:15.456Z,61.49
2023-08-04T19:59:21.113Z,67.31
2023-08-04T20:04:24.139Z,63.62
2023-08-04T20:09:28.452Z,57.66
2023-08-04T20:14:33.841Z,58.15
2023-08-04T20:19:37.262Z,58.69
2023-08-04T20:24:40.152Z,60.09
2023-08-04T20:29:47.567Z,66.77
2023-08-04T20:34:50.472Z,62.72
2023-08-04T20:39:54.036Z,57.62
2023-08-04T20:44:56.936Z,58.60
2023-08-04T20:49:59.708Z,60.23
2023-08-04T20:55:02.720Z,61.65
2023-08-04T21:00:06.780Z,66.91
2023-08-04T21:05:09.791Z,62.26
2023-08-04T21:10:12.615Z,57.47
2023-08-04T21:15:15.942Z,59.15
2023-08-04T21:20:19.451Z,61.06
2023-08-04T21:25:22.370Z,65.88
2023-08-04T21:30:26.283Z,61.85
2023-08-04T21:35:29.154Z,57.65
2023-08-04T21:40:32.005Z,59.54
2023-08-04T21:45:35.246Z,61.90
2023-08-04T21:50:38.611Z,67.03
2023-08-04T21:55:43.764Z,62.90
2023-08-04T22:00:49.530Z,58.87
2023-08-04T22:05:55.505Z,61.01
2023-08-04T22:11:09.728Z,64.89
2023-08-04T22:16:13.517Z,64.26
2023-08-04T22:21:16.655Z,59.00
2023-08-04T22:26:19.575Z,60.84
2023-08-04T22:31:24.954Z,65.78
2023-08-04T22:36:27.811Z,61.97
2023-08-04T22:41:30.643Z,58.05
2023-08-04T22:46:33.530Z,60.46
2023-08-04T22:51:36.373Z,62.15
2023-08-04T22:56:39.246Z,66.75
2023-08-04T23:01:42.088Z,61.74
2023-08-04T23:06:44.862Z,58.19
2023-08-04T23:11:47.721Z,60.41
2023-08-04T23:16:50.773Z,64.99
2023-08-04T23:21:53.904Z,61.21
2023-08-04T23:26:56.687Z,57.74
2023-08-04T23:31:59.478Z,60.13
2023-08-04T23:37:02.287Z,63.64
2023-08-04T23:42:05.198Z,64.62
2023-08-04T23:47:08.012Z,60.14
2023-08-04T23:52:10.838Z,57.90
2023-08-04T23:57:13.596Z,60.83
